createdAt,value
2022-08-29T00:01:05.505Z,101756.19
2022-08-29T00:03:32.560Z,101758.81
2022-08-29T00:05:59.280Z,101757.97
2022-08-29T00:08:26.149Z,101744.75
2022-08-29T00:10:53.091Z,101742.28
2022-08-29T00:13:19.961Z,101736.44
2022-08-29T00:15:46.871Z,101739.03
2022-08-29T00:18:17.573Z,101744.69
2022-08-29T00:20:45.422Z,101749.59
2022-08-29T00:23:12.252Z,101737.94
2022-08-29T00:25:39.501Z,101742.25
2022-08-29T00:28:06.868Z,101738.31
2022-08-29T00:33:01.492Z,101732.69
2022-08-29T00:35:32.687Z,101733.03
2022-08-29T00:38:00.359Z,101739.06
2022-08-29T00:40:30.744Z,101739.50
2022-08-29T00:42:57.994Z,101741.16
2022-08-29T00:45:25.320Z,101738.91
2022-08-29T00:47:58.013Z,101750.91
2022-08-29T00:50:48.146Z,101753.38
2022-08-29T00:53:17.441Z,101744.34
2022-08-29T00:55:50.303Z,101748.63
2022-08-29T00:58:25.560Z,101739.38
2022-08-29T01:00:53.653Z,101744.78
2022-08-29T01:03:20.689Z,101745.13
2022-08-29T01:05:47.955Z,101735.72
2022-08-29T01:08:15.064Z,101741.94
2022-08-29T01:11:00.793Z,101738.47
2022-08-29T01:13:32.011Z,101745.75
2022-08-29T01:15:59.221Z,101735.66
2022-08-29T01:18:27.391Z,101746.72
2022-08-29T01:21:13.478Z,101748.50
2022-08-29T01:24:15.860Z,101752.22
2022-08-29T01:26:45.692Z,101751.78
2022-08-29T01:29:14.281Z,101753.00
2022-08-29T01:31:56.460Z,101743.41
2022-08-29T01:34:26.625Z,101749.69
2022-08-29T01:36:56.445Z,101743.28
2022-08-29T01:39:26.647Z,101747.56
2022-08-29T01:41:54.156Z,101749.75
2022-08-29T01:44:22.453Z,101751.34
2022-08-29T01:46:51.121Z,101754.72
2022-08-29T01:49:19.207Z,101749.00
2022-08-29T01:51:46.025Z,101742.47
2022-08-29T01:54:14.352Z,101744.84
2022-08-29T01:56:45.029Z,101749.56
2022-08-29T01:59:14.546Z,101756.06
2022-08-29T02:01:45.129Z,101755.47
2022-08-29T02:04:12.809Z,101749.81
2022-08-29T02:06:40.279Z,101750.25
2022-08-29T02:09:08.159Z,101745.72
2022-08-29T02:11:40.098Z,101753.81
2022-08-29T02:14:07.976Z,101747.50
2022-08-29T02:16:39.670Z,101739.72
2022-08-29T02:19:06.569Z,101734.22
2022-08-29T02:21:33.788Z,101738.78
2022-08-29T02:24:21.340Z,101733.53
2022-08-29T02:26:49.897Z,101730.91
2022-08-29T02:29:16.781Z,101738.38
2022-08-29T02:31:43.623Z,101735.47
2022-08-29T02:34:11.002Z,101735.13
2022-08-29T02:36:38.896Z,101732.59
2022-08-29T02:39:08.399Z,101728.00
2022-08-29T02:41:36.198Z,101734.59
2022-08-29T02:44:05.129Z,101736.50
2022-08-29T02:46:32.095Z,101738.00
2022-08-29T02:49:01.146Z,101736.28
2022-08-29T02:51:31.254Z,101744.78
2022-08-29T02:53:58.488Z,101748.06
2022-08-29T02:56:25.394Z,101745.31
2022-08-29T02:58:52.130Z,101739.16
2022-08-29T03:01:21.640Z,101739.59
2022-08-29T03:03:50.522Z,101739.34
2022-08-29T03:06:19.940Z,101730.22
2022-08-29T03:08:50.233Z,101727.56
2022-08-29T03:11:18.521Z,101726.91
2022-08-29T03:13:45.978Z,101722.44
2022-08-29T03:16:13.825Z,101708.47
2022-08-29T03:18:40.668Z,101722.13
2022-08-29T03:21:19.699Z,101712.72
2022-08-29T03:23:46.986Z,101715.72
2022-08-29T03:26:13.873Z,101715.91
2022-08-29T03:28:41.044Z,101712.94
2022-08-29T03:31:09.829Z,101718.50
2022-08-29T03:33:37.603Z,101721.19
2022-08-29T03:36:05.443Z,101732.06
2022-08-29T03:38:40.906Z,101728.50
2022-08-29T03:41:08.157Z,101733.13
2022-08-29T03:43:35.038Z,101721.34
2022-08-29T03:46:10.144Z,101727.94
2022-08-29T03:48:40.416Z,101724.72
2022-08-29T03:51:09.154Z,101721.78
2022-08-29T03:53:38.358Z,101717.25
2022-08-29T03:56:10.820Z,101722.06
2022-08-29T03:58:48.091Z,101710.81
2022-08-29T04:01:19.769Z,101719.91
2022-08-29T04:03:46.552Z,101717.22
2022-08-29T04:06:13.378Z,101716.41
2022-08-29T04:08:40.138Z,101711.06
2022-08-29T04:11:13.367Z,101720.06
2022-08-29T04:13:40.715Z,101729.84
2022-08-29T04:16:16.456Z,101735.19
2022-08-29T04:18:43.812Z,101729.50
2022-08-29T04:21:10.597Z,101732.13
2022-08-29T04:23:38.325Z,101729.97
2022-08-29T04:26:31.371Z,101729.53
2022-08-29T04:28:52.668Z,101731.94
2022-08-29T04:31:20.399Z,101716.06
2022-08-29T04:33:50.960Z,101734.78
2022-08-29T04:36:18.864Z,101741.75
2022-08-29T04:38:45.963Z,101747.25
2022-08-29T04:41:16.037Z,101757.78
2022-08-29T04:43:43.293Z,101753.88
2022-08-29T04:46:16.342Z,101756.16
2022-08-29T04:48:51.135Z,101765.19
2022-08-29T04:51:18.792Z,101760.38
2022-08-29T04:53:46.931Z,101764.97
2022-08-29T04:56:14.129Z,101764.16
2022-08-29T04:58:44.152Z,101761.91
2022-08-29T05:01:21.690Z,101753.09
2022-08-29T05:03:49.432Z,101760.50
2022-08-29T05:06:18.336Z,101762.66
2022-08-29T05:08:47.577Z,101761.44
2022-08-29T05:11:27.241Z,101771.00
2022-08-29T05:13:54.530Z,101775.38
2022-08-29T05:16:21.491Z,101781.44
2022-08-29T05:18:48.695Z,101775.84
2022-08-29T05:21:25.963Z,101774.81
2022-08-29T05:23:54.298Z,101779.38
2022-08-29T05:26:21.439Z,101776.97
2022-08-29T05:28:51.628Z,101788.88
2022-08-29T05:31:18.952Z,101790.34
2022-08-29T05:33:46.152Z,101784.06
2022-08-29T05:36:12.844Z,101785.78
2022-08-29T05:38:39.727Z,101783.38
2022-08-29T05:41:07.455Z,101782.47
2022-08-29T05:43:35.198Z,101785.41
2022-08-29T05:46:07.183Z,101793.44
2022-08-29T05:48:34.978Z,101785.53
2022-08-29T05:51:01.955Z,101796.38
2022-08-29T05:53:29.604Z,101790.53
2022-08-29T05:55:56.315Z,101791.22
2022-08-29T05:58:23.070Z,101792.91
2022-08-29T06:00:51.783Z,101794.34
2022-08-29T06:03:18.744Z,101795.91
2022-08-29T06:05:50.717Z,101798.75
2022-08-29T06:08:17.958Z,101793.91
2022-08-29T06:10:45.322Z,101795.97
2022-08-29T06:13:13.012Z,101798.19
2022-08-29T06:15:44.270Z,101784.66
2022-08-29T06:18:11.373Z,101789.31
2022-08-29T06:20:39.615Z,101795.59
2022-08-29T06:23:06.310Z,101788.84
2022-08-29T06:25:39.950Z,101788.22
2022-08-29T06:28:07.719Z,101783.19
2022-08-29T06:30:34.719Z,101793.97
2022-08-29T06:33:02.015Z,101801.50
2022-08-29T06:35:29.045Z,101798.41
2022-08-29T06:37:55.933Z,101800.97
2022-08-29T06:40:22.892Z,101797.25
2022-08-29T06:42:49.974Z,101798.09
2022-08-29T06:45:17.035Z,101797.69
2022-08-29T06:47:46.574Z,101802.94
2022-08-29T06:50:14.748Z,101806.09
2022-08-29T06:52:42.608Z,101805.59
2022-08-29T06:55:12.847Z,101811.63
2022-08-29T06:57:46.558Z,101805.66
2022-08-29T07:00:21.538Z,101808.75
2022-08-29T07:02:51.745Z,101797.94
2022-08-29T07:05:20.343Z,101802.25
2022-08-29T07:07:48.925Z,101789.34
2022-08-29T07:10:21.601Z,101781.78
2022-08-29T07:12:49.462Z,101792.66
2022-08-29T07:15:16.355Z,101789.34
2022-08-29T07:17:43.065Z,101798.16
2022-08-29T07:20:10.516Z,101808.34
2022-08-29T07:22:37.480Z,101798.50
2022-08-29T07:25:04.522Z,101803.38
2022-08-29T07:27:31.250Z,101808.22
2022-08-29T07:30:00.446Z,101809.47
2022-08-29T07:32:27.194Z,101807.00
2022-08-29T07:34:56.078Z,101808.88
2022-08-29T07:37:26.245Z,101813.09
2022-08-29T07:39:53.060Z,101804.19
2022-08-29T07:42:19.824Z,101805.34
2022-08-29T07:44:46.538Z,101810.56
2022-08-29T07:47:13.568Z,101805.34
2022-08-29T07:49:41.702Z,101808.78
2022-08-29T07:52:08.840Z,101809.34
2022-08-29T07:54:36.367Z,101810.56
2022-08-29T07:57:05.437Z,101810.50
2022-08-29T07:59:32.517Z,101803.09
2022-08-29T08:01:59.383Z,101804.00
2022-08-29T08:04:26.206Z,101805.34
2022-08-29T08:06:53.041Z,101810.41
2022-08-29T08:09:21.203Z,101811.75
2022-08-29T08:11:48.441Z,101810.25
2022-08-29T08:14:15.211Z,101819.50
2022-08-29T08:16:44.191Z,101817.19
2022-08-29T08:19:13.207Z,101824.47
2022-08-29T08:21:46.953Z,101813.44
2022-08-29T08:24:19.503Z,101824.97
2022-08-29T08:26:48.441Z,101827.31
2022-08-29T08:29:15.118Z,101818.88
2022-08-29T08:31:47.111Z,101819.75
2022-08-29T08:34:15.829Z,101822.94
2022-08-29T08:36:44.824Z,101823.41
2022-08-29T08:39:13.187Z,101822.53
2022-08-29T08:41:49.492Z,101823.16
2022-08-29T08:44:22.355Z,101821.59
2022-08-29T08:46:58.302Z,101806.75
2022-08-29T08:49:40.450Z,101825.00
2022-08-29T08:52:19.005Z,101831.50
2022-08-29T08:55:11.957Z,101827.09
2022-08-29T08:57:45.703Z,101830.47
2022-08-29T09:00:13.478Z,101823.22
2022-08-29T09:02:56.087Z,101820.44
2022-08-29T09:05:49.108Z,101819.44
2022-08-29T09:08:31.458Z,101821.16
2022-08-29T09:11:03.327Z,101822.59
2022-08-29T09:13:46.683Z,101826.06
2022-08-29T09:16:29.617Z,101819.38
2022-08-29T09:19:04.298Z,101818.13
2022-08-29T09:21:45.688Z,101826.06
2022-08-29T09:24:33.118Z,101830.38
2022-08-29T09:27:00.252Z,101824.03
2022-08-29T09:29:29.634Z,101823.50
2022-08-29T09:32:07.977Z,101808.50
2022-08-29T09:35:07.948Z,101820.78
2022-08-29T09:37:35.865Z,101816.81
2022-08-29T09:40:16.787Z,101809.41
2022-08-29T09:43:00.548Z,101806.94
2022-08-29T09:45:27.854Z,101806.44
2022-08-29T09:48:18.013Z,101805.56
2022-08-29T09:50:44.965Z,101804.78
2022-08-29T09:53:24.228Z,101807.00
2022-08-29T09:55:52.511Z,101803.81
2022-08-29T09:58:19.125Z,101808.09
2022-08-29T10:01:02.606Z,101796.63
2022-08-29T10:03:34.987Z,101791.41
2022-08-29T10:06:28.297Z,101803.97
2022-08-29T10:09:09.562Z,101797.13
2022-08-29T10:11:56.210Z,101794.41
2022-08-29T10:14:31.519Z,101790.34
2022-08-29T10:17:23.064Z,101782.47
2022-08-29T10:19:50.698Z,101791.31
2022-08-29T10:22:34.326Z,101797.50
2022-08-29T10:25:06.301Z,101790.09
2022-08-29T10:27:42.977Z,101793.50
2022-08-29T10:30:12.473Z,101784.59
2022-08-29T10:33:00.642Z,101784.13
2022-08-29T10:35:32.112Z,101784.63
2022-08-29T10:38:05.882Z,101769.69
2022-08-29T10:40:51.644Z,101773.13
2022-08-29T10:43:25.184Z,101771.72
2022-08-29T10:46:12.509Z,101770.88
2022-08-29T10:48:47.318Z,101769.34
2022-08-29T10:51:49.736Z,101766.72
2022-08-29T10:54:37.880Z,101766.50
2022-08-29T10:57:05.212Z,101763.13
2022-08-29T10:59:38.275Z,101760.50
2022-08-29T11:02:34.756Z,101755.72
2022-08-29T11:05:10.948Z,101740.88
2022-08-29T11:07:43.971Z,101754.00
2022-08-29T11:10:17.970Z,101747.84
2022-08-29T11:12:55.973Z,101747.00
2022-08-29T11:15:48.543Z,101740.41
2022-08-29T11:18:22.225Z,101751.63
2022-08-29T11:20:56.366Z,101742.06
2022-08-29T11:23:42.647Z,101749.44
2022-08-29T11:26:21.512Z,101738.19
2022-08-29T11:28:57.945Z,101741.47
2022-08-29T11:31:58.439Z,101739.63
2022-08-29T11:34:43.883Z,101728.63
2022-08-29T11:37:16.725Z,101728.22
2022-08-29T11:39:58.231Z,101729.38
2022-08-29T11:45:24.767Z,101717.50
2022-08-29T11:48:00.436Z,101722.03
2022-08-29T11:50:36.886Z,101714.38
2022-08-29T11:53:18.980Z,101721.94
2022-08-29T11:56:14.523Z,101715.78
2022-08-29T11:58:46.919Z,101709.06
2022-08-29T12:01:36.287Z,101718.97
2022-08-29T12:04:05.382Z,101723.03
2022-08-29T12:06:38.665Z,101716.00
2022-08-29T12:09:19.370Z,101699.28
2022-08-29T12:12:03.994Z,101689.47
2022-08-29T12:14:38.458Z,101679.41
2022-08-29T12:17:08.429Z,101683.13
2022-08-29T12:20:12.390Z,101681.03
2022-08-29T12:22:59.356Z,101679.53
2022-08-29T12:26:03.764Z,101669.41
2022-08-29T12:28:45.090Z,101681.84
2022-08-29T12:31:27.645Z,101670.66
2022-08-29T12:34:05.696Z,101666.19
2022-08-29T12:36:35.494Z,101665.94
2022-08-29T12:39:11.242Z,101677.25
2022-08-29T12:41:50.987Z,101677.59
2022-08-29T12:44:22.660Z,101673.09
2022-08-29T12:47:01.443Z,101675.34
2022-08-29T12:49:51.543Z,101667.88
2022-08-29T12:52:34.787Z,101666.44
2022-08-29T12:55:22.854Z,101665.28
2022-08-29T12:57:56.881Z,101656.16
2022-08-29T13:00:29.309Z,101653.81
2022-08-29T13:03:15.097Z,101663.91
2022-08-29T13:05:43.280Z,101655.97
2022-08-29T13:08:27.714Z,101654.59
2022-08-29T13:11:18.619Z,101651.00
2022-08-29T13:13:45.584Z,101643.09
2022-08-29T13:16:26.618Z,101633.63
2022-08-29T13:19:10.122Z,101645.81
2022-08-29T13:21:37.560Z,101629.91
2022-08-29T13:24:11.053Z,101635.81
2022-08-29T13:26:41.375Z,101637.13
2022-08-29T13:29:27.321Z,101639.75
2022-08-29T13:32:19.114Z,101632.44
2022-08-29T13:35:15.366Z,101637.47
2022-08-29T13:37:44.931Z,101631.13
2022-08-29T13:40:33.758Z,101626.31
2022-08-29T13:43:02.048Z,101622.97
2022-08-29T13:45:29.165Z,101628.88
2022-08-29T13:48:02.416Z,101633.97
2022-08-29T13:50:29.754Z,101623.78
2022-08-29T13:52:57.846Z,101618.56
2022-08-29T13:55:26.541Z,101626.53
2022-08-29T13:57:54.810Z,101628.59
2022-08-29T14:00:32.154Z,101623.81
2022-08-29T14:03:03.043Z,101617.00
2022-08-29T14:05:30.186Z,101614.53
2022-08-29T14:07:57.345Z,101612.63
2022-08-29T14:10:24.182Z,101609.81
2022-08-29T14:12:51.027Z,101606.69
2022-08-29T14:15:18.277Z,101614.19
2022-08-29T14:17:47.277Z,101594.41
2022-08-29T14:20:16.489Z,101599.28
2022-08-29T14:22:43.421Z,101601.66
2022-08-29T14:25:11.410Z,101596.97
2022-08-29T14:27:39.133Z,101592.56
2022-08-29T14:30:10.659Z,101586.28
2022-08-29T14:32:38.190Z,101598.13
2022-08-29T14:35:06.239Z,101587.81
2022-08-29T14:37:36.028Z,101594.97
2022-08-29T14:40:04.248Z,101582.28
2022-08-29T14:42:32.070Z,101582.63
2022-08-29T14:44:58.977Z,101569.63
2022-08-29T14:47:25.799Z,101574.00
2022-08-29T14:49:53.879Z,101573.19
2022-08-29T14:52:20.823Z,101568.84
2022-08-29T14:54:47.561Z,101556.94
2022-08-29T14:57:14.410Z,101562.88
2022-08-29T14:59:41.867Z,101558.88
2022-08-29T15:02:09.954Z,101554.06
2022-08-29T15:04:37.973Z,101557.59
2022-08-29T15:07:10.649Z,101548.19
2022-08-29T15:09:38.213Z,101552.50
2022-08-29T15:12:05.560Z,101556.03
2022-08-29T15:14:34.551Z,101554.09
2022-08-29T15:17:02.715Z,101564.75
2022-08-29T15:22:16.711Z,101561.56
2022-08-29T15:24:43.702Z,101555.28
2022-08-29T15:27:11.278Z,101550.63
2022-08-29T15:29:40.767Z,101550.25
2022-08-29T15:32:08.363Z,101541.84
2022-08-29T15:34:35.353Z,101533.59
2022-08-29T15:37:03.574Z,101534.38
2022-08-29T15:39:30.506Z,101536.28
2022-08-29T15:42:00.027Z,101522.88
2022-08-29T15:44:28.265Z,101539.13
2022-08-29T15:46:55.882Z,101535.91
2022-08-29T15:49:25.473Z,101534.31
2022-08-29T15:51:53.136Z,101543.00
2022-08-29T15:54:21.046Z,101542.63
2022-08-29T15:56:47.968Z,101536.66
2022-08-29T15:59:15.826Z,101527.59
2022-08-29T16:01:48.090Z,101533.19
2022-08-29T16:04:18.673Z,101528.00
2022-08-29T16:06:45.883Z,101532.78
2022-08-29T16:09:15.935Z,101530.00
2022-08-29T16:11:44.382Z,101532.38
2022-08-29T16:14:46.664Z,101524.00
2022-08-29T16:16:58.169Z,101528.81
2022-08-29T16:19:24.813Z,101517.31
2022-08-29T16:21:51.589Z,101520.44
2022-08-29T16:24:18.479Z,101510.19
2022-08-29T16:26:45.934Z,101519.72
2022-08-29T16:29:13.293Z,101522.09
2022-08-29T16:31:40.143Z,101520.91
2022-08-29T16:34:07.593Z,101516.13
2022-08-29T16:36:34.943Z,101518.84
2022-08-29T16:39:04.999Z,101510.13
2022-08-29T16:41:34.253Z,101511.34
2022-08-29T16:44:01.949Z,101505.44
2022-08-29T16:46:31.100Z,101522.47
2022-08-29T16:48:58.033Z,101516.91
2022-08-29T16:51:27.275Z,101511.38
2022-08-29T16:53:54.221Z,101515.28
2022-08-29T16:56:21.097Z,101509.34
2022-08-29T16:59:01.539Z,101507.78
2022-08-29T17:01:53.405Z,101511.59
2022-08-29T17:04:23.749Z,101506.56
2022-08-29T17:06:51.957Z,101507.38
2022-08-29T17:09:21.350Z,101508.19
2022-08-29T17:11:48.465Z,101506.22
2022-08-29T17:14:16.500Z,101500.69
2022-08-29T18:53:49.365Z,101535.28
2022-08-29T18:56:16.300Z,101533.72
2022-08-29T18:58:44.564Z,101536.09
2022-08-29T19:01:23.253Z,101541.72
2022-08-29T19:03:57.275Z,101543.31
2022-08-29T19:06:26.071Z,101541.28
2022-08-29T19:08:54.746Z,101547.22
2022-08-29T19:11:21.701Z,101547.63
2022-08-29T19:13:49.583Z,101546.88
2022-08-29T19:16:21.105Z,101544.03
2022-08-29T19:18:48.187Z,101544.41
2022-08-29T19:21:15.014Z,101544.75
2022-08-29T19:23:45.979Z,101548.19
2022-08-29T19:26:17.418Z,101548.19
2022-08-29T19:28:44.723Z,101554.91
2022-08-29T19:31:14.502Z,101558.78
2022-08-29T19:33:43.452Z,101559.16
2022-08-29T19:36:10.423Z,101554.81
2022-08-29T19:38:37.244Z,101567.75
2022-08-29T19:41:05.558Z,101572.00
2022-08-29T19:43:33.804Z,101570.91
2022-08-29T19:46:01.321Z,101566.19
2022-08-29T19:48:28.742Z,101579.22
2022-08-29T19:50:56.962Z,101572.38
2022-08-29T19:53:26.540Z,101575.56
2022-08-29T19:55:55.557Z,101580.00
2022-08-29T19:58:22.891Z,101579.13
2022-08-29T20:01:00.192Z,101569.63
2022-08-29T20:03:27.696Z,101579.50
2022-08-29T20:05:55.221Z,101577.03
2022-08-29T20:08:21.963Z,101571.19
2022-08-29T20:10:50.077Z,101568.44
2022-08-29T20:13:17.522Z,101572.00
2022-08-29T20:15:44.405Z,101572.84
2022-08-29T20:18:13.626Z,101568.06
2022-08-29T20:20:40.590Z,101566.34
2022-08-29T20:23:08.652Z,101576.72
2022-08-29T20:25:35.879Z,101583.09
2022-08-29T20:28:03.334Z,101577.81
2022-08-29T20:30:32.718Z,101583.03
2022-08-29T20:32:59.681Z,101581.03
2022-08-29T20:35:45.336Z,101583.69
2022-08-29T20:38:12.165Z,101574.19
2022-08-29T20:40:46.631Z,101579.38
2022-08-29T20:43:14.769Z,101573.16
2022-08-29T20:45:42.403Z,101569.53
2022-08-29T20:48:10.326Z,101564.31
2022-08-29T20:50:37.919Z,101559.97
2022-08-29T20:53:05.664Z,101567.78
2022-08-29T20:55:32.400Z,101566.63
2022-08-29T20:57:59.165Z,101573.19
2022-08-29T21:00:26.203Z,101572.63
2022-08-29T21:03:11.822Z,101570.38
2022-08-29T21:05:45.295Z,101568.78
2022-08-29T21:08:18.055Z,101572.28
2022-08-29T21:10:46.333Z,101576.25
2022-08-29T21:13:13.276Z,101569.94
2022-08-29T21:15:41.167Z,101573.50
2022-08-29T21:18:09.314Z,101570.78
2022-08-29T21:20:37.848Z,101575.84
2022-08-29T21:23:12.910Z,101570.31
2022-08-29T21:25:40.833Z,101564.34
2022-08-29T21:28:08.165Z,101570.41
2022-08-29T21:30:36.333Z,101568.78
2022-08-29T21:33:03.663Z,101571.59
2022-08-29T21:35:30.345Z,101575.41
2022-08-29T21:37:57.157Z,101565.41
2022-08-29T21:40:25.992Z,101564.22
2022-08-29T21:42:56.653Z,101575.16
2022-08-29T21:45:23.748Z,101584.66
2022-08-29T21:47:58.492Z,101586.88
2022-08-29T21:50:25.737Z,101594.03
2022-08-29T21:52:52.855Z,101589.69
2022-08-29T21:55:21.756Z,101589.69
2022-08-29T21:57:51.754Z,101591.22
2022-08-29T22:00:20.590Z,101595.25
2022-08-29T22:02:48.049Z,101593.13
2022-08-29T22:05:15.205Z,101593.34
2022-08-29T22:07:42.918Z,101590.09
2022-08-29T22:10:20.814Z,101583.22
2022-08-29T22:12:47.937Z,101584.50
2022-08-29T22:15:34.068Z,101589.75
2022-08-29T22:18:01.012Z,101596.66
2022-08-29T22:20:28.025Z,101601.31
2022-08-29T22:22:55.278Z,101593.16
2022-08-29T22:25:22.946Z,101586.31
2022-08-29T22:27:50.245Z,101599.72
2022-08-29T22:30:17.354Z,101595.69
2022-08-29T22:32:44.267Z,101592.88
2022-08-29T22:35:19.895Z,101598.34
2022-08-29T22:37:46.734Z,101591.75
2022-08-29T22:40:16.652Z,101585.50
2022-08-29T22:42:44.539Z,101590.69
2022-08-29T22:45:12.897Z,101585.78
2022-08-29T22:47:41.342Z,101584.34
2022-08-29T22:50:12.490Z,101590.88
2022-08-29T22:52:39.383Z,101588.78
2022-08-29T22:55:07.767Z,101585.00
2022-08-29T22:57:34.640Z,101582.53
2022-08-29T23:00:03.661Z,101584.22
2022-08-29T23:02:30.826Z,101583.69
2022-08-29T23:04:57.926Z,101581.22
2022-08-29T23:07:25.264Z,101577.28
2022-08-29T23:09:52.055Z,101576.72
2022-08-29T23:12:19.344Z,101574.50
2022-08-29T23:14:46.646Z,101574.78
2022-08-29T23:17:14.398Z,101579.22
2022-08-29T23:19:44.050Z,101577.97
2022-08-29T23:22:11.748Z,101577.25
2022-08-29T23:24:57.666Z,101572.53
2022-08-29T23:27:27.441Z,101569.75
2022-08-29T23:29:54.359Z,101569.97
2022-08-29T23:32:21.221Z,101573.19
2022-08-29T23:34:47.988Z,101567.22
2022-08-29T23:37:14.854Z,101569.25
2022-08-29T23:39:41.539Z,101571.13
2022-08-29T23:42:08.412Z,101573.31
2022-08-29T23:44:35.809Z,101567.72
2022-08-29T23:47:02.714Z,101578.13
2022-08-29T23:49:29.732Z,101574.16
2022-08-29T23:51:56.495Z,101573.81
2022-08-29T23:54:23.498Z,101566.91
2022-08-29T23:56:50.376Z,101567.88
2022-08-29T23:59:35.838Z,101565.94
